createdAt,value
2022-11-10T00:01:09.740Z,61.30
2022-11-10T00:03:59.071Z,61.30
2022-11-10T00:06:48.383Z,61.30
2022-11-10T00:09:35.919Z,61.30
2022-11-10T00:12:24.494Z,61.40
2022-11-10T00:15:30.433Z,61.40
2022-11-10T00:18:19.977Z,61.40
2022-11-10T00:21:09.465Z,61.40
2022-11-10T00:23:57.004Z,61.40
2022-11-10T00:26:44.673Z,61.40
2022-11-10T00:29:32.331Z,61.40
2022-11-10T00:32:19.965Z,61.40
2022-11-10T00:35:10.174Z,61.40
2022-11-10T00:37:57.766Z,61.50
2022-11-10T00:40:45.252Z,61.40
2022-11-10T00:43:33.334Z,61.50
2022-11-10T00:46:21.490Z,61.50
2022-11-10T00:49:09.191Z,61.50
2022-11-10T00:51:58.141Z,61.50
2022-11-10T00:54:45.980Z,61.50
2022-11-10T00:57:33.714Z,61.50
2022-11-10T01:00:21.785Z,61.60
2022-11-10T01:03:09.599Z,61.60
2022-11-10T01:05:57.494Z,61.60
2022-11-10T01:08:47.344Z,61.50
2022-11-10T01:11:35.237Z,61.60
2022-11-10T01:14:22.762Z,61.60
2022-11-10T01:17:10.417Z,61.60
2022-11-10T01:19:58.267Z,61.60
2022-11-10T01:22:45.836Z,61.60
2022-11-10T01:25:34.809Z,61.70
2022-11-10T01:28:22.573Z,61.70
2022-11-10T01:31:12.278Z,61.70
2022-11-10T01:34:01.312Z,61.70
2022-11-10T01:36:49.251Z,61.60
2022-11-10T01:39:36.917Z,61.70
2022-11-10T01:42:28.468Z,61.70
2022-11-10T01:45:43.733Z,61.60
2022-11-10T01:48:35.441Z,61.70
2022-11-10T01:51:27.612Z,61.70
2022-11-10T01:54:22.202Z,61.60
2022-11-10T01:57:12.682Z,61.80
2022-11-10T02:00:03.186Z,61.70
2022-11-10T02:02:55.597Z,61.70
2022-11-10T02:05:45.441Z,61.70
2022-11-10T02:08:33.721Z,61.70
2022-11-10T02:11:21.604Z,61.70
2022-11-10T02:14:10.060Z,61.70
2022-11-10T02:16:59.975Z,61.80
2022-11-10T02:19:48.312Z,61.70
2022-11-10T02:22:38.477Z,61.70
2022-11-10T02:25:31.172Z,61.80
2022-11-10T02:28:18.848Z,61.80
2022-11-10T02:31:08.727Z,61.80
2022-11-10T02:33:56.624Z,61.80
2022-11-10T02:36:44.239Z,61.80
2022-11-10T02:39:33.192Z,61.80
2022-11-10T02:42:20.908Z,61.90
2022-11-10T02:45:09.625Z,61.90
2022-11-10T02:47:57.250Z,61.80
2022-11-10T02:50:45.078Z,61.90
2022-11-10T02:53:32.504Z,61.90
2022-11-10T02:56:21.592Z,61.90
2022-11-10T02:59:09.553Z,61.90
2022-11-10T03:01:57.289Z,62.00
2022-11-10T03:04:44.869Z,61.90
2022-11-10T03:07:32.527Z,62.00
2022-11-10T03:10:20.402Z,61.90
2022-11-10T03:13:09.534Z,62.00
2022-11-10T03:15:57.319Z,61.90
2022-11-10T03:18:45.074Z,61.90
2022-11-10T03:21:32.743Z,61.90
2022-11-10T03:24:20.358Z,62.00
2022-11-10T03:27:07.876Z,62.00
2022-11-10T03:29:57.151Z,62.00
2022-11-10T03:32:44.992Z,62.00
2022-11-10T03:35:33.066Z,62.00
2022-11-10T03:38:20.558Z,62.00
2022-11-10T03:41:23.590Z,62.00
2022-11-10T03:44:11.399Z,62.10
2022-11-10T03:47:01.799Z,62.10
2022-11-10T03:49:49.406Z,62.10
2022-11-10T03:52:36.803Z,61.90
2022-11-10T03:55:24.390Z,61.90
2022-11-10T03:58:12.006Z,62.00
2022-11-10T04:00:59.936Z,62.00
2022-11-10T04:03:51.530Z,62.00
2022-11-10T04:06:56.725Z,62.10
2022-11-10T04:09:44.623Z,62.10
2022-11-10T04:12:49.534Z,62.00
2022-11-10T04:15:46.285Z,62.00
2022-11-10T04:18:34.099Z,62.10
2022-11-10T04:21:23.228Z,62.20
2022-11-10T04:24:11.040Z,62.10
2022-11-10T04:26:58.732Z,62.10
2022-11-10T04:29:46.498Z,62.10
2022-11-10T04:32:34.125Z,62.10
2022-11-10T04:35:21.521Z,62.20
2022-11-10T04:38:10.595Z,62.10
2022-11-10T04:40:58.824Z,62.10
2022-11-10T04:43:46.825Z,62.20
2022-11-10T04:46:36.166Z,62.10
2022-11-10T04:49:23.973Z,62.20
2022-11-10T04:52:11.661Z,62.20
2022-11-10T04:55:00.700Z,62.20
2022-11-10T04:57:48.524Z,62.20
2022-11-10T05:00:36.678Z,62.20
2022-11-10T05:03:26.662Z,62.20
2022-11-10T05:06:14.767Z,62.20
2022-11-10T05:09:02.437Z,62.20
2022-11-10T05:11:51.403Z,62.20
2022-11-10T05:14:39.223Z,62.30
2022-11-10T05:17:27.585Z,62.30
2022-11-10T05:20:15.390Z,62.20
2022-11-10T05:23:20.300Z,62.20
2022-11-10T05:26:10.395Z,62.30
2022-11-10T05:28:59.707Z,62.30
2022-11-10T05:31:51.408Z,62.30
2022-11-10T05:34:39.369Z,62.20
2022-11-10T05:37:27.121Z,62.20
2022-11-10T05:40:14.924Z,62.20
2022-11-10T05:43:03.152Z,62.30
2022-11-10T05:45:52.374Z,62.20
2022-11-10T05:48:40.145Z,62.30
2022-11-10T05:51:27.773Z,62.20
2022-11-10T05:54:15.616Z,62.30
2022-11-10T05:57:03.463Z,62.30
2022-11-10T05:59:51.457Z,62.30
2022-11-10T06:02:40.410Z,62.30
2022-11-10T06:05:31.097Z,62.20
2022-11-10T06:08:19.310Z,62.30
2022-11-10T06:11:07.459Z,62.30
2022-11-10T06:13:55.045Z,62.20
2022-11-10T06:16:42.960Z,62.20
2022-11-10T06:19:32.057Z,62.20
2022-11-10T06:22:19.929Z,62.30
2022-11-10T06:25:08.918Z,62.20
2022-11-10T06:27:57.017Z,62.20
2022-11-10T06:30:45.116Z,62.20
2022-11-10T06:33:32.702Z,62.30
2022-11-10T06:36:21.792Z,62.20
2022-11-10T06:39:10.468Z,62.30
2022-11-10T06:41:58.183Z,62.20
2022-11-10T06:44:46.058Z,62.20
2022-11-10T06:47:33.786Z,62.20
2022-11-10T06:50:21.457Z,62.20
2022-11-10T06:53:11.347Z,62.30
2022-11-10T06:55:59.106Z,62.30
2022-11-10T06:58:46.742Z,62.30
2022-11-10T07:01:34.484Z,62.30
2022-11-10T07:04:22.550Z,62.70
2022-11-10T07:07:10.262Z,62.80
2022-11-10T07:10:04.143Z,62.90
2022-11-10T07:13:04.993Z,62.80
2022-11-10T07:15:52.894Z,63.10
2022-11-10T07:18:40.818Z,63.80
2022-11-10T07:21:28.617Z,64.70
2022-11-10T07:24:16.270Z,65.20
2022-11-10T07:27:05.582Z,65.00
2022-11-10T07:29:53.550Z,65.10
2022-11-10T07:32:41.183Z,64.80
2022-11-10T07:35:29.375Z,64.40
2022-11-10T07:38:17.001Z,64.00
2022-11-10T07:41:04.728Z,64.00
2022-11-10T07:43:54.161Z,63.80
2022-11-10T07:46:42.041Z,63.90
2022-11-10T07:49:30.458Z,63.90
2022-11-10T07:52:18.147Z,63.40
2022-11-10T07:55:06.914Z,63.10
2022-11-10T07:57:58.675Z,63.20
2022-11-10T08:00:48.737Z,63.10
2022-11-10T08:03:36.713Z,63.20
2022-11-10T08:06:25.112Z,63.10
2022-11-10T08:09:12.779Z,62.90
2022-11-10T08:12:00.407Z,62.70
2022-11-10T08:14:48.544Z,62.50
2022-11-10T08:17:37.854Z,62.40
2022-11-10T08:20:26.001Z,62.40
2022-11-10T08:23:14.709Z,62.40
2022-11-10T08:26:02.702Z,62.40
2022-11-10T08:28:51.480Z,62.40
2022-11-10T08:31:39.507Z,63.20
2022-11-10T08:34:28.855Z,63.20
2022-11-10T08:37:16.618Z,63.10
2022-11-10T08:40:04.767Z,63.00
2022-11-10T08:43:00.565Z,62.90
2022-11-10T08:45:48.475Z,62.90
2022-11-10T08:48:36.158Z,62.70
2022-11-10T08:51:25.482Z,62.70
2022-11-10T08:54:13.344Z,62.60
2022-11-10T08:57:01.038Z,62.70
2022-11-10T08:59:48.776Z,62.60
2022-11-10T09:02:36.605Z,62.70
2022-11-10T09:05:25.476Z,62.60
2022-11-10T09:08:14.943Z,62.50
2022-11-10T09:11:05.073Z,62.50
2022-11-10T09:13:53.119Z,62.40
2022-11-10T09:16:40.825Z,62.60
2022-11-10T09:19:28.409Z,62.90
2022-11-10T09:22:15.889Z,63.20
2022-11-10T09:25:05.690Z,63.20
2022-11-10T09:27:53.480Z,63.10
2022-11-10T09:30:41.764Z,63.30
2022-11-10T09:33:29.584Z,63.10
2022-11-10T09:36:17.445Z,63.30
2022-11-10T09:39:05.324Z,63.20
2022-11-10T09:41:54.716Z,63.20
2022-11-10T09:44:52.140Z,63.10
2022-11-10T09:47:56.690Z,63.10
2022-11-10T09:50:50.512Z,63.10
2022-11-10T09:53:42.905Z,63.20
2022-11-10T09:56:34.355Z,63.00
2022-11-10T09:59:28.238Z,63.10
2022-11-10T10:02:25.673Z,63.00
2022-11-10T10:05:40.464Z,63.00
2022-11-10T10:08:40.747Z,62.90
2022-11-10T10:11:43.059Z,63.00
2022-11-10T10:14:58.762Z,63.00
2022-11-10T10:17:57.448Z,62.90
2022-11-10T10:20:54.264Z,62.90
2022-11-10T10:27:01.436Z,62.80
2022-11-10T10:29:51.203Z,62.80
2022-11-10T10:32:38.851Z,62.80
2022-11-10T10:35:27.268Z,62.70
2022-11-10T10:38:24.841Z,62.70
2022-11-10T10:41:21.058Z,62.60
2022-11-10T10:44:14.872Z,62.60
2022-11-10T10:47:05.006Z,62.60
2022-11-10T10:49:53.055Z,62.50
2022-11-10T10:52:40.601Z,62.50
2022-11-10T10:55:30.670Z,62.40
2022-11-10T10:58:25.460Z,63.30
2022-11-10T11:01:30.424Z,62.50
2022-11-10T11:04:36.946Z,62.60
2022-11-10T11:07:26.398Z,62.70
2022-11-10T11:10:22.779Z,62.60
2022-11-10T11:13:16.278Z,62.70
2022-11-10T11:16:05.782Z,62.80
2022-11-10T11:18:53.798Z,62.80
2022-11-10T11:21:53.495Z,63.50
2022-11-10T11:24:47.262Z,64.30
2022-11-10T11:27:43.446Z,64.60
2022-11-10T11:30:42.109Z,66.60
2022-11-10T11:33:36.492Z,66.60
2022-11-10T11:36:35.273Z,67.60
2022-11-10T11:39:37.726Z,67.70
2022-11-10T11:42:34.213Z,68.10
2022-11-10T11:45:30.025Z,68.20
2022-11-10T11:48:50.190Z,68.60
2022-11-10T11:51:44.869Z,68.90
2022-11-10T11:54:49.330Z,68.90
2022-11-10T11:57:46.115Z,69.40
2022-11-10T12:00:45.926Z,70.20
2022-11-10T12:06:45.927Z,70.00
2022-11-10T12:09:45.061Z,69.70
2022-11-10T12:12:53.928Z,70.30
2022-11-10T12:15:50.366Z,72.40
2022-11-10T12:18:49.655Z,73.60
2022-11-10T12:21:46.969Z,72.10
2022-11-10T12:24:55.287Z,72.20
2022-11-10T12:27:46.789Z,72.20
2022-11-10T12:30:37.705Z,72.90
2022-11-10T12:33:32.748Z,72.90
2022-11-10T12:36:23.727Z,72.60
2022-11-10T12:39:20.285Z,73.10
2022-11-10T12:42:15.775Z,73.30
2022-11-10T12:45:06.911Z,72.90
2022-11-10T12:47:56.188Z,73.20
2022-11-10T12:50:52.199Z,73.60
2022-11-10T12:53:42.378Z,73.40
2022-11-10T12:56:35.235Z,73.40
2022-11-10T12:59:36.652Z,74.00
2022-11-10T13:02:30.213Z,73.90
2022-11-10T13:05:26.957Z,74.10
2022-11-10T13:08:34.456Z,74.30
2022-11-10T13:11:28.978Z,74.40
2022-11-10T13:14:27.281Z,74.10
2022-11-10T13:17:56.532Z,74.20
2022-11-10T13:20:51.535Z,74.10
2022-11-10T13:24:22.463Z,74.30
2022-11-10T13:27:14.389Z,74.60
2022-11-10T13:30:02.703Z,74.30
2022-11-10T13:32:50.477Z,73.60
2022-11-10T13:35:56.162Z,74.70
2022-11-10T13:38:46.210Z,73.60
2022-11-10T13:41:36.044Z,73.10
2022-11-10T13:44:28.375Z,72.70
2022-11-10T13:47:49.720Z,71.70
2022-11-10T13:50:51.218Z,70.90
2022-11-10T13:53:51.474Z,70.30
2022-11-10T13:56:56.790Z,70.00
2022-11-10T13:59:49.022Z,69.80
2022-11-10T14:02:55.182Z,69.60
2022-11-10T14:06:05.975Z,69.10
2022-11-10T14:09:00.992Z,68.80
2022-11-10T14:11:52.890Z,68.60
2022-11-10T14:14:51.595Z,68.60
2022-11-10T14:17:45.656Z,68.50
2022-11-10T14:20:40.047Z,68.30
2022-11-10T14:23:34.096Z,68.20
2022-11-10T14:26:30.260Z,68.10
2022-11-10T14:29:34.652Z,67.90
2022-11-10T14:32:24.950Z,67.90
2022-11-10T14:35:22.651Z,67.70
2022-11-10T14:38:21.133Z,67.70
2022-11-10T14:41:17.612Z,67.60
2022-11-10T14:44:09.024Z,67.50
2022-11-10T14:46:59.252Z,67.40
2022-11-10T14:49:47.457Z,67.30
2022-11-10T14:52:39.843Z,67.30
2022-11-10T14:55:31.030Z,67.20
2022-11-10T14:58:25.873Z,67.30
2022-11-10T15:01:26.580Z,67.50
2022-11-10T15:04:16.571Z,67.60
2022-11-10T15:07:04.311Z,67.60
2022-11-10T15:10:14.374Z,67.50
2022-11-10T15:13:04.856Z,67.50
2022-11-10T15:15:53.753Z,67.40
2022-11-10T15:18:43.375Z,67.40
2022-11-10T15:21:34.139Z,67.40
2022-11-10T15:24:23.821Z,67.40
2022-11-10T15:27:24.025Z,67.50
2022-11-10T15:30:24.947Z,67.50
2022-11-10T15:33:16.507Z,67.60
2022-11-10T15:36:32.334Z,67.60
2022-11-10T15:39:26.808Z,67.80
2022-11-10T15:42:16.544Z,67.50
2022-11-10T15:45:04.814Z,67.60
2022-11-10T15:47:52.837Z,67.90
2022-11-10T15:50:42.234Z,68.10
2022-11-10T15:53:34.101Z,68.60
2022-11-10T15:56:24.141Z,68.80
2022-11-10T15:59:12.499Z,68.70
2022-11-10T16:02:00.949Z,68.60
2022-11-10T16:04:52.425Z,68.20
2022-11-10T16:07:42.322Z,68.00
2022-11-10T16:10:31.660Z,67.80
2022-11-10T16:13:25.337Z,67.70
2022-11-10T16:16:16.670Z,67.70
2022-11-10T16:19:04.944Z,67.60
2022-11-10T16:21:52.783Z,67.70
2022-11-10T16:24:40.497Z,67.70
2022-11-10T16:27:29.940Z,67.90
2022-11-10T16:30:18.778Z,67.90
2022-11-10T16:33:06.998Z,67.90
2022-11-10T16:35:56.454Z,67.90
2022-11-10T16:38:44.385Z,67.80
2022-11-10T16:41:32.108Z,68.10
2022-11-10T16:44:25.280Z,68.00
2022-11-10T16:47:19.615Z,68.00
2022-11-10T16:50:25.358Z,67.60
2022-11-10T16:53:17.684Z,67.60
2022-11-10T16:56:05.528Z,67.80
2022-11-10T16:58:53.183Z,67.60
2022-11-10T17:01:44.604Z,68.00
2022-11-10T17:04:32.135Z,67.70
2022-11-10T17:07:24.781Z,67.50
2022-11-10T17:10:17.123Z,67.70
2022-11-10T17:13:04.768Z,67.30
2022-11-10T17:15:57.043Z,66.90
2022-11-10T17:18:46.736Z,67.00
2022-11-10T17:21:35.906Z,66.80
2022-11-10T17:24:23.812Z,66.80
2022-11-10T17:27:12.208Z,66.80
2022-11-10T17:29:59.982Z,66.80
2022-11-10T17:33:05.254Z,66.80
2022-11-10T17:35:56.342Z,66.80
2022-11-10T17:38:44.909Z,66.70
2022-11-10T17:41:32.962Z,66.70
2022-11-10T17:44:21.015Z,66.80
2022-11-10T17:47:09.119Z,66.70
2022-11-10T17:49:56.893Z,66.80
2022-11-10T17:52:46.117Z,66.70
2022-11-10T17:55:34.561Z,66.60
2022-11-10T17:58:22.749Z,66.60
2022-11-10T18:01:18.895Z,66.30
2022-11-10T18:04:06.710Z,65.90
2022-11-10T18:06:54.287Z,66.20
2022-11-10T18:09:43.532Z,66.30
2022-11-10T18:12:31.139Z,66.30
2022-11-10T18:15:19.085Z,66.50
2022-11-10T18:18:06.991Z,67.40
2022-11-10T18:20:54.852Z,67.70
2022-11-10T18:23:45.498Z,67.70
2022-11-10T18:26:34.674Z,67.70
2022-11-10T18:29:22.595Z,67.70
2022-11-10T18:32:10.229Z,67.50
2022-11-10T18:34:57.975Z,67.20
2022-11-10T18:37:45.631Z,66.90
2022-11-10T18:40:33.534Z,66.70
2022-11-10T18:43:23.241Z,66.60
2022-11-10T18:46:11.307Z,66.70
2022-11-10T18:48:59.775Z,66.60
2022-11-10T18:51:47.663Z,66.50
2022-11-10T18:54:35.395Z,66.60
2022-11-10T18:57:23.145Z,66.70
2022-11-10T19:00:14.189Z,66.70
2022-11-10T19:03:02.045Z,67.30
2022-11-10T19:05:58.341Z,66.50
2022-11-10T19:08:47.103Z,66.50
2022-11-10T19:11:35.709Z,67.00
2022-11-10T19:14:23.378Z,67.40
2022-11-10T19:17:12.588Z,67.60
2022-11-10T19:20:00.443Z,67.90
2022-11-10T19:22:48.094Z,68.00
2022-11-10T19:25:35.725Z,68.00
2022-11-10T19:28:23.540Z,67.90
2022-11-10T19:31:12.868Z,67.90
2022-11-10T19:34:02.035Z,68.00
2022-11-10T19:36:50.393Z,68.10
2022-11-10T19:39:38.229Z,68.00
2022-11-10T19:42:25.968Z,67.80
2022-11-10T19:45:15.549Z,67.80
2022-11-10T19:48:03.128Z,67.70
2022-11-10T19:50:56.439Z,67.40
2022-11-10T19:53:44.818Z,67.30
2022-11-10T19:56:35.770Z,67.00
2022-11-10T19:59:23.517Z,66.70
2022-11-10T20:02:13.504Z,66.50
2022-11-10T20:05:17.456Z,66.40
2022-11-10T20:08:15.697Z,66.30
2022-11-10T20:11:06.047Z,66.10
2022-11-10T20:13:55.978Z,66.00
2022-11-10T20:16:43.716Z,65.90
2022-11-10T20:19:31.237Z,65.70
2022-11-10T20:22:18.961Z,65.70
2022-11-10T20:25:09.083Z,65.60
2022-11-10T20:27:57.030Z,65.50
2022-11-10T20:30:45.878Z,65.40
2022-11-10T20:33:34.137Z,65.20
2022-11-10T20:36:26.226Z,65.10
2022-11-10T20:39:13.839Z,65.40
2022-11-10T20:42:03.209Z,66.10
2022-11-10T20:44:51.236Z,66.40
2022-11-10T20:47:39.529Z,66.50
2022-11-10T20:50:27.470Z,66.90
2022-11-10T20:53:15.125Z,66.90
2022-11-10T20:56:03.398Z,66.70
2022-11-10T20:58:53.718Z,66.60
2022-11-10T21:01:41.422Z,66.80
2022-11-10T21:04:29.146Z,66.90
2022-11-10T21:07:17.053Z,66.80
2022-11-10T21:10:04.964Z,66.90
2022-11-10T21:12:53.206Z,66.70
2022-11-10T21:15:42.572Z,67.00
2022-11-10T21:18:32.628Z,66.70
2022-11-10T21:21:22.747Z,66.50
2022-11-10T21:24:11.439Z,66.50
2022-11-10T21:26:59.771Z,66.60
2022-11-10T21:29:47.751Z,66.40
2022-11-10T21:32:37.376Z,66.10
2022-11-10T21:35:25.636Z,66.40
2022-11-10T21:38:14.355Z,65.40
2022-11-10T21:41:02.207Z,66.00
2022-11-10T21:43:50.201Z,65.50
2022-11-10T21:46:38.259Z,65.50
2022-11-10T21:49:27.479Z,65.70
2022-11-10T21:52:15.557Z,65.20
2022-11-10T21:55:03.424Z,65.60
2022-11-10T21:57:58.083Z,65.10
2022-11-10T22:00:45.845Z,63.30
2022-11-10T22:03:34.415Z,64.10
2022-11-10T22:06:23.947Z,64.30
2022-11-10T22:09:11.879Z,64.30
2022-11-10T22:12:17.180Z,64.60
2022-11-10T22:15:22.805Z,64.90
2022-11-10T22:18:32.666Z,65.10
2022-11-10T22:21:20.522Z,65.20
2022-11-10T22:24:26.778Z,65.40
2022-11-10T22:27:14.417Z,65.40
2022-11-10T22:30:02.543Z,65.50
2022-11-10T22:32:50.063Z,65.40
2022-11-10T22:35:46.731Z,65.40
2022-11-10T22:38:36.174Z,65.20
2022-11-10T22:41:42.962Z,65.00
2022-11-10T22:44:30.846Z,65.00
2022-11-10T22:47:18.590Z,64.90
2022-11-10T22:50:07.299Z,64.90
2022-11-10T22:52:55.218Z,64.80
2022-11-10T22:55:42.870Z,64.60
2022-11-10T22:58:31.919Z,64.60
2022-11-10T23:01:20.283Z,64.60
2022-11-10T23:04:07.986Z,64.50
2022-11-10T23:06:55.632Z,64.40
2022-11-10T23:09:43.322Z,64.30
2022-11-10T23:12:30.879Z,64.40
2022-11-10T23:15:20.183Z,64.40
2022-11-10T23:18:08.127Z,64.30
2022-11-10T23:21:00.059Z,64.30
2022-11-10T23:23:48.737Z,64.30
2022-11-10T23:26:36.416Z,64.30
2022-11-10T23:29:24.064Z,64.20
2022-11-10T23:32:13.124Z,64.00
2022-11-10T23:35:00.940Z,64.10
2022-11-10T23:37:48.523Z,64.10
2022-11-10T23:40:36.188Z,63.90
2022-11-10T23:43:24.289Z,63.90
2022-11-10T23:46:12.478Z,63.90
2022-11-10T23:49:02.030Z,63.80
2022-11-10T23:51:49.824Z,63.80
2022-11-10T23:54:37.174Z,63.80
2022-11-10T23:57:24.786Z,63.80
